createdAt,value
2023-04-14T00:00:06.538Z,96.34
2023-04-14T00:01:06.725Z,96.09
2023-04-14T00:02:06.624Z,95.68
2023-04-14T00:03:06.793Z,95.83
2023-04-14T00:04:06.585Z,95.99
2023-04-14T00:05:06.519Z,95.68
2023-04-14T00:06:06.473Z,95.78
2023-04-14T00:07:06.502Z,95.68
2023-04-14T00:08:06.469Z,95.78
2023-04-14T00:09:06.477Z,95.94
2023-04-14T00:10:06.463Z,95.68
2023-04-14T00:11:06.430Z,95.57
2023-04-14T00:12:06.438Z,95.37
2023-04-14T00:13:06.425Z,95.52
2023-04-14T00:14:06.412Z,95.78
2023-04-14T00:15:06.408Z,95.94
2023-04-14T00:16:06.403Z,95.62
2023-04-14T00:17:06.440Z,95.68
2023-04-14T00:18:06.480Z,95.17
2023-04-14T00:19:06.385Z,95.27
2023-04-14T00:20:06.400Z,95.21
2023-04-14T00:21:06.480Z,95.00
2023-04-14T00:23:05.858Z,95.52
2023-04-14T00:24:05.865Z,95.00
2023-04-14T00:25:05.833Z,95.31
2023-04-14T00:26:05.834Z,95.00
2023-04-14T00:27:05.830Z,95.21
2023-04-14T00:28:05.820Z,95.36
2023-04-14T00:29:05.807Z,95.67
2023-04-14T00:30:05.797Z,95.56
2023-04-14T00:31:05.816Z,96.19
2023-04-14T00:32:06.885Z,95.83
2023-04-14T00:33:06.880Z,95.87
2023-04-14T00:34:06.856Z,96.55
2023-04-14T00:35:07.821Z,96.24
2023-04-14T00:36:06.861Z,96.66
2023-04-14T00:37:06.838Z,96.66
2023-04-14T00:38:06.845Z,96.66
2023-04-14T00:39:07.875Z,96.97
2023-04-14T00:40:06.823Z,96.97
2023-04-14T00:41:06.851Z,97.17
2023-04-14T00:42:06.806Z,97.07
2023-04-14T00:43:06.797Z,97.07
2023-04-14T00:44:06.783Z,96.97
2023-04-14T00:45:06.781Z,96.97
2023-04-14T00:46:06.899Z,96.14
2023-04-14T00:47:06.765Z,95.78
2023-04-14T00:48:06.762Z,96.24
2023-04-14T00:49:06.747Z,96.34
2023-04-14T00:50:06.748Z,96.41
2023-04-14T00:51:07.302Z,95.73
2023-04-14T00:52:06.720Z,95.83
2023-04-14T00:53:06.728Z,95.99
2023-04-14T00:54:06.704Z,95.78
2023-04-14T00:55:06.710Z,95.99
2023-04-14T00:56:06.686Z,95.78
2023-04-14T00:57:06.682Z,96.03
2023-04-14T00:58:06.686Z,95.83
2023-04-14T00:59:06.665Z,95.83
2023-04-14T01:00:06.659Z,96.09
2023-04-14T01:01:06.647Z,96.03
2023-04-14T01:02:06.762Z,95.83
2023-04-14T01:03:06.874Z,95.94
2023-04-14T01:04:06.689Z,96.03
2023-04-14T01:05:07.430Z,96.03
2023-04-14T01:06:06.613Z,95.99
2023-04-14T01:07:06.639Z,96.14
2023-04-14T01:08:06.615Z,95.83
2023-04-14T01:09:06.588Z,96.03
2023-04-14T01:10:06.583Z,96.24
2023-04-14T01:11:06.563Z,95.78
2023-04-14T01:12:06.562Z,96.03
2023-04-14T01:13:06.587Z,96.24
2023-04-14T01:14:06.566Z,95.83
2023-04-14T01:15:06.532Z,95.89
2023-04-14T01:16:06.590Z,95.68
2023-04-14T01:17:06.538Z,96.41
2023-04-14T01:18:06.581Z,96.20
2023-04-14T01:19:06.517Z,95.99
2023-04-14T01:20:06.538Z,95.99
2023-04-14T01:21:06.510Z,95.68
2023-04-14T01:22:06.505Z,95.37
2023-04-14T01:23:06.512Z,95.27
2023-04-14T01:24:06.552Z,95.27
2023-04-14T01:25:06.512Z,95.68
2023-04-14T01:26:06.481Z,95.89
2023-04-14T01:27:06.474Z,95.02
2023-04-14T01:28:06.486Z,95.27
2023-04-14T01:29:06.483Z,95.17
2023-04-14T01:30:06.432Z,95.22
2023-04-14T01:31:06.474Z,94.92
2023-04-14T01:32:06.446Z,95.02
2023-04-14T01:33:06.374Z,95.22
2023-04-14T01:34:06.382Z,94.71
2023-04-14T01:35:06.402Z,95.17
2023-04-14T01:36:06.360Z,95.48
2023-04-14T01:37:07.241Z,95.57
2023-04-14T01:38:06.359Z,95.17
2023-04-14T01:39:06.348Z,94.85
2023-04-14T01:40:06.329Z,94.96
2023-04-14T01:41:06.323Z,94.75
2023-04-14T01:42:06.327Z,95.06
2023-04-14T01:43:06.341Z,95.06
2023-04-14T01:44:06.320Z,94.92
2023-04-14T01:45:06.292Z,94.85
2023-04-14T01:46:06.343Z,95.02
2023-04-14T01:47:06.290Z,94.96
2023-04-14T01:48:06.331Z,95.17
2023-04-14T01:49:06.284Z,94.92
2023-04-14T01:50:06.262Z,94.92
2023-04-14T01:51:06.247Z,95.48
2023-04-14T01:52:06.233Z,95.43
2023-04-14T01:53:06.245Z,94.92
2023-04-14T01:54:06.242Z,95.17
2023-04-14T01:55:06.224Z,95.12
2023-04-14T01:56:06.210Z,95.12
2023-04-14T01:57:06.236Z,95.17
2023-04-14T01:58:06.350Z,95.37
2023-04-14T01:59:06.190Z,96.14
2023-04-14T02:00:06.174Z,96.03
2023-04-14T02:01:06.286Z,97.17
2023-04-14T02:02:06.188Z,97.17
2023-04-14T02:03:06.236Z,97.28
2023-04-14T02:04:06.307Z,97.07
2023-04-14T02:05:06.173Z,96.86
2023-04-14T02:06:06.153Z,96.97
2023-04-14T02:07:06.132Z,96.55
2023-04-14T02:08:06.112Z,96.66
2023-04-14T02:09:06.094Z,97.07
2023-04-14T02:10:06.115Z,96.97
2023-04-14T02:11:06.078Z,97.02
2023-04-14T02:12:06.090Z,97.23
2023-04-14T02:13:06.060Z,96.09
2023-04-14T02:14:06.060Z,96.34
2023-04-14T02:15:06.054Z,95.99
2023-04-14T02:16:06.080Z,95.68
2023-04-14T02:17:06.055Z,95.78
2023-04-14T02:18:06.036Z,95.68
2023-04-14T02:19:06.074Z,95.57
2023-04-14T02:20:06.032Z,95.68
2023-04-14T02:21:06.016Z,95.89
2023-04-14T02:22:05.990Z,95.37
2023-04-14T02:23:05.991Z,95.78
2023-04-14T02:24:06.022Z,95.89
2023-04-14T02:25:05.978Z,95.64
2023-04-14T02:26:05.975Z,95.78
2023-04-14T02:27:05.968Z,95.48
2023-04-14T02:28:05.955Z,95.57
2023-04-14T02:29:05.969Z,95.32
2023-04-14T02:30:05.962Z,95.68
2023-04-14T02:31:06.851Z,95.78
2023-04-14T02:32:05.996Z,95.68
2023-04-14T02:33:05.998Z,94.96
2023-04-14T02:34:05.947Z,95.37
2023-04-14T02:35:05.884Z,95.78
2023-04-14T02:36:05.887Z,95.37
2023-04-14T02:37:05.900Z,95.37
2023-04-14T02:38:05.879Z,95.89
2023-04-14T02:39:05.905Z,95.99
2023-04-14T02:40:05.880Z,95.48
2023-04-14T02:41:05.901Z,95.57
2023-04-14T02:42:05.867Z,95.27
2023-04-14T02:43:05.842Z,95.37
2023-04-14T02:44:05.833Z,95.17
2023-04-14T02:45:05.855Z,95.48
2023-04-14T02:46:05.863Z,95.68
2023-04-14T02:47:05.797Z,95.06
2023-04-14T02:48:05.819Z,95.89
2023-04-14T02:49:05.784Z,95.32
2023-04-14T02:50:05.787Z,95.48
2023-04-14T02:51:05.770Z,95.37
2023-04-14T02:52:05.771Z,95.57
2023-04-14T02:53:06.345Z,95.78
2023-04-14T02:54:06.739Z,95.37
2023-04-14T02:55:05.750Z,95.37
2023-04-14T02:56:05.723Z,95.48
2023-04-14T02:57:05.735Z,95.27
2023-04-14T02:58:05.712Z,95.68
2023-04-14T02:59:05.695Z,95.48
2023-04-14T03:00:05.765Z,95.48
2023-04-14T03:01:05.708Z,95.27
2023-04-14T03:02:05.777Z,94.85
2023-04-14T03:03:05.750Z,95.27
2023-04-14T03:04:05.772Z,95.37
2023-04-14T03:05:05.673Z,95.99
2023-04-14T03:06:05.646Z,95.99
2023-04-14T03:07:05.642Z,95.73
2023-04-14T03:08:05.643Z,95.57
2023-04-14T03:09:05.625Z,95.57
2023-04-14T03:10:05.632Z,95.94
2023-04-14T03:11:05.614Z,95.94
2023-04-14T03:12:05.611Z,95.62
2023-04-14T03:13:05.594Z,95.89
2023-04-14T03:14:05.583Z,96.09
2023-04-14T03:15:05.565Z,95.78
2023-04-14T03:16:05.620Z,95.99
2023-04-14T03:17:05.576Z,96.03
2023-04-14T03:18:05.579Z,95.78
2023-04-14T03:19:05.549Z,95.83
2023-04-14T03:20:05.547Z,96.59
2023-04-14T03:21:05.522Z,97.07
2023-04-14T03:22:05.533Z,97.01
2023-04-14T03:23:05.595Z,96.70
2023-04-14T03:24:05.507Z,97.22
2023-04-14T03:25:05.494Z,97.84
2023-04-14T03:26:05.483Z,97.22
2023-04-14T03:27:05.489Z,97.11
2023-04-14T03:28:05.462Z,97.63
2023-04-14T03:29:05.471Z,97.63
2023-04-14T03:30:05.497Z,97.63
2023-04-14T03:31:05.540Z,97.53
2023-04-14T03:32:05.440Z,97.11
2023-04-14T03:33:05.494Z,97.53
2023-04-14T03:34:05.428Z,97.07
2023-04-14T03:35:05.402Z,97.22
2023-04-14T03:36:06.263Z,96.91
2023-04-14T03:37:05.391Z,96.59
2023-04-14T03:38:05.401Z,96.91
2023-04-14T03:39:05.408Z,97.36
2023-04-14T03:40:05.380Z,97.47
2023-04-14T03:41:05.368Z,97.67
2023-04-14T03:42:05.351Z,97.67
2023-04-14T03:43:05.335Z,97.26
2023-04-14T03:44:05.334Z,97.57
2023-04-14T03:45:06.293Z,97.57
2023-04-14T03:46:05.355Z,97.57
2023-04-14T03:47:05.349Z,97.78
2023-04-14T03:48:05.452Z,97.57
2023-04-14T03:49:05.290Z,97.53
2023-04-14T03:50:05.310Z,97.78
2023-04-14T03:51:05.291Z,97.67
2023-04-14T03:52:05.314Z,97.78
2023-04-14T03:53:05.287Z,97.72
2023-04-14T03:54:05.250Z,98.30
2023-04-14T03:55:05.264Z,98.50
2023-04-14T03:56:05.235Z,98.65
2023-04-14T03:57:05.236Z,98.75
2023-04-14T03:58:05.220Z,97.93
2023-04-14T03:59:05.228Z,98.55
2023-04-14T04:00:05.393Z,98.19
2023-04-14T04:01:06.205Z,98.86
2023-04-14T04:02:05.251Z,99.23
2023-04-14T04:03:05.260Z,98.92
2023-04-14T04:04:05.255Z,99.27
2023-04-14T04:05:05.376Z,99.58
2023-04-14T04:06:05.365Z,99.27
2023-04-14T04:07:05.148Z,99.79
2023-04-14T04:08:05.157Z,99.99
2023-04-14T04:09:05.155Z,99.79
2023-04-14T04:10:05.147Z,99.48
2023-04-14T04:11:05.156Z,99.64
2023-04-14T04:12:05.105Z,99.58
2023-04-14T04:13:05.121Z,99.02
2023-04-14T04:14:05.113Z,99.07
2023-04-14T04:15:05.097Z,99.27
2023-04-14T04:16:05.137Z,99.54
2023-04-14T04:17:05.080Z,99.54
2023-04-14T04:18:05.072Z,99.43
2023-04-14T04:19:05.100Z,99.38
2023-04-14T04:20:06.807Z,99.02
2023-04-14T04:21:05.065Z,99.07
2023-04-14T04:22:05.043Z,98.92
2023-04-14T04:23:05.025Z,98.40
2023-04-14T04:24:05.043Z,98.61
2023-04-14T04:25:05.014Z,98.65
2023-04-14T04:26:05.015Z,98.44
2023-04-14T04:27:08.038Z,98.44
2023-04-14T04:28:06.003Z,98.30
2023-04-14T04:29:04.983Z,99.07
2023-04-14T04:30:05.824Z,99.38
2023-04-14T04:31:04.947Z,99.27
2023-04-14T04:32:04.983Z,99.11
2023-04-14T04:33:04.982Z,99.43
2023-04-14T04:34:04.937Z,99.63
2023-04-14T04:35:04.983Z,99.73
2023-04-14T04:36:04.938Z,99.17
2023-04-14T04:37:04.923Z,99.38
2023-04-14T04:38:04.915Z,99.32
2023-04-14T04:39:04.905Z,99.69
2023-04-14T04:40:04.915Z,99.69
2023-04-14T04:41:04.887Z,99.27
2023-04-14T04:42:04.905Z,99.17
2023-04-14T04:43:04.905Z,99.38
2023-04-14T04:44:04.872Z,99.69
2023-04-14T04:45:05.381Z,99.38
2023-04-14T04:46:04.907Z,98.96
2023-04-14T04:47:04.860Z,98.55
2023-04-14T04:48:04.876Z,98.55
2023-04-14T04:49:04.856Z,98.28
2023-04-14T04:50:04.946Z,98.03
2023-04-14T04:51:05.324Z,97.93
2023-04-14T04:52:05.767Z,97.83
2023-04-14T04:53:05.757Z,97.52
2023-04-14T04:54:04.784Z,97.41
2023-04-14T04:55:05.760Z,97.56
2023-04-14T04:56:06.347Z,97.31
2023-04-14T04:57:05.804Z,97.62
2023-04-14T04:58:04.781Z,97.31
2023-04-14T04:59:04.748Z,97.31
2023-04-14T05:00:04.770Z,97.10
2023-04-14T05:01:04.775Z,97.52
2023-04-14T05:02:04.792Z,97.41
2023-04-14T05:03:06.546Z,97.31
2023-04-14T05:04:04.729Z,97.62
2023-04-14T05:05:04.700Z,97.36
2023-04-14T05:06:04.692Z,97.00
2023-04-14T05:07:04.694Z,97.00
2023-04-14T05:08:04.717Z,96.95
2023-04-14T05:09:04.731Z,97.26
2023-04-14T05:10:06.353Z,96.23
2023-04-14T05:11:04.665Z,96.02
2023-04-14T05:12:04.663Z,95.96
2023-04-14T05:13:04.649Z,95.34
2023-04-14T05:14:04.631Z,95.24
2023-04-14T05:15:04.623Z,95.75
2023-04-14T05:16:04.714Z,96.06
2023-04-14T05:17:04.638Z,95.96
2023-04-14T05:18:06.418Z,95.75
2023-04-14T05:19:04.612Z,95.86
2023-04-14T05:20:04.638Z,95.71
2023-04-14T05:21:04.615Z,95.61
2023-04-14T05:22:06.387Z,95.40
2023-04-14T05:23:06.273Z,95.92
2023-04-14T05:24:04.547Z,95.71
2023-04-14T05:25:06.401Z,95.71
2023-04-14T05:26:30.475Z,95.50
2023-04-14T05:27:14.275Z,95.50
2023-04-14T05:28:08.351Z,94.98
2023-04-14T05:29:04.504Z,95.50
2023-04-14T05:30:04.553Z,95.40
2023-04-14T05:31:06.409Z,95.71
2023-04-14T05:32:04.526Z,95.50
2023-04-14T05:33:05.357Z,95.61
2023-04-14T05:34:06.282Z,95.29
2023-04-14T05:35:06.288Z,95.61
2023-04-14T05:36:06.300Z,95.29
2023-04-14T05:37:04.475Z,95.40
2023-04-14T05:38:04.465Z,95.29
2023-04-14T05:39:04.910Z,95.40
2023-04-14T05:40:06.421Z,95.29
2023-04-14T05:41:04.448Z,95.71
2023-04-14T05:42:05.370Z,94.93
2023-04-14T05:43:04.412Z,94.68
2023-04-14T05:44:04.716Z,94.93
2023-04-14T05:45:04.407Z,94.62
2023-04-14T05:46:04.470Z,94.41
2023-04-14T05:47:04.447Z,94.62
2023-04-14T05:48:04.450Z,94.20
2023-04-14T05:49:04.407Z,94.31
2023-04-14T05:50:06.304Z,94.82
2023-04-14T05:51:04.360Z,95.34
2023-04-14T05:52:04.364Z,95.24
2023-04-14T05:53:04.364Z,95.44
2023-04-14T05:54:04.372Z,95.39
2023-04-14T05:55:04.328Z,94.93
2023-04-14T05:56:04.311Z,95.14
2023-04-14T05:57:04.301Z,95.18
2023-04-14T05:58:04.297Z,94.56
2023-04-14T05:59:05.893Z,94.76
2023-04-14T06:00:04.299Z,94.97
2023-04-14T06:01:04.330Z,95.39
2023-04-14T06:02:05.958Z,95.53
2023-04-14T06:03:07.089Z,95.84
2023-04-14T06:04:04.880Z,96.15
2023-04-14T06:05:04.935Z,95.95
2023-04-14T06:06:04.233Z,95.99
2023-04-14T06:07:04.262Z,96.05
2023-04-14T06:08:04.217Z,96.26
2023-04-14T06:09:04.220Z,96.26
2023-04-14T06:10:04.195Z,95.95
2023-04-14T06:11:06.877Z,95.89
2023-04-14T06:12:04.932Z,95.84
2023-04-14T06:13:04.245Z,95.32
2023-04-14T06:14:04.191Z,95.53
2023-04-14T06:15:04.207Z,94.91
2023-04-14T06:16:04.210Z,95.43
2023-04-14T06:17:04.175Z,95.32
2023-04-14T06:18:04.178Z,95.32
2023-04-14T06:19:04.464Z,95.39
2023-04-14T06:20:05.881Z,95.59
2023-04-14T06:21:04.123Z,95.12
2023-04-14T06:22:05.795Z,95.39
2023-04-14T06:23:05.135Z,95.39
2023-04-14T06:24:04.148Z,95.28
2023-04-14T06:25:04.090Z,95.49
2023-04-14T06:27:11.841Z,94.04
2023-04-14T06:28:11.225Z,94.31
2023-04-14T06:29:11.223Z,93.83
2023-04-14T06:30:11.211Z,93.83
2023-04-14T06:31:11.217Z,93.93
2023-04-14T06:32:12.835Z,93.83
2023-04-14T06:33:12.318Z,93.99
2023-04-14T06:34:12.304Z,94.04
2023-04-14T06:35:25.768Z,94.97
2023-04-14T06:36:14.269Z,95.75
2023-04-14T06:37:12.842Z,94.76
2023-04-14T06:38:12.280Z,93.89
2023-04-14T06:39:12.233Z,94.97
2023-04-14T06:40:12.269Z,95.14
2023-04-14T06:41:13.796Z,94.72
2023-04-14T06:42:12.260Z,94.10
2023-04-14T06:43:12.209Z,94.10
2023-04-14T06:44:12.219Z,94.41
2023-04-14T06:45:12.213Z,94.31
2023-04-14T06:46:12.250Z,94.10
2023-04-14T06:47:12.165Z,93.79
2023-04-14T06:48:12.232Z,94.62
2023-04-14T06:49:12.187Z,95.44
2023-04-14T06:50:12.165Z,95.86
2023-04-14T06:51:12.156Z,94.72
2023-04-14T06:52:12.125Z,94.68
2023-04-14T06:53:12.119Z,95.09
2023-04-14T06:54:12.114Z,94.84
2023-04-14T06:55:12.117Z,93.70
2023-04-14T06:56:12.129Z,93.80
2023-04-14T06:57:12.145Z,94.69
2023-04-14T06:58:12.109Z,93.41
2023-04-14T06:59:12.148Z,92.58
2023-04-14T07:00:12.081Z,92.54
2023-04-14T07:01:12.123Z,92.13
2023-04-14T07:02:12.173Z,90.64
2023-04-14T07:03:12.147Z,91.16
2023-04-14T07:04:12.803Z,90.80
2023-04-14T07:05:12.089Z,90.91
2023-04-14T07:06:12.098Z,89.52
2023-04-14T07:07:12.029Z,90.10
2023-04-14T07:08:12.077Z,89.65
2023-04-14T07:09:12.047Z,88.72
2023-04-14T07:10:12.774Z,87.17
2023-04-14T07:11:12.015Z,87.07
2023-04-14T07:12:12.031Z,87.38
2023-04-14T07:13:12.000Z,87.73
2023-04-14T07:14:12.013Z,88.35
2023-04-14T07:15:11.983Z,88.51
2023-04-14T07:16:12.577Z,87.21
2023-04-14T07:17:12.941Z,87.27
2023-04-14T07:18:11.949Z,87.07
2023-04-14T07:19:11.934Z,87.48
2023-04-14T07:20:11.940Z,87.69
2023-04-14T07:21:11.935Z,86.87
2023-04-14T07:22:11.916Z,86.39
2023-04-14T07:23:13.802Z,86.80
2023-04-14T07:24:13.628Z,88.18
2023-04-14T07:25:11.932Z,88.45
2023-04-14T07:26:11.938Z,87.73
2023-04-14T07:27:11.876Z,87.42
2023-04-14T07:28:11.854Z,87.48
2023-04-14T07:29:11.836Z,87.07
2023-04-14T07:30:11.856Z,87.17
2023-04-14T07:31:12.921Z,86.82
2023-04-14T07:32:11.859Z,85.22
2023-04-14T07:33:11.889Z,85.52
2023-04-14T07:34:11.823Z,85.87
2023-04-14T07:35:11.831Z,86.70
2023-04-14T07:36:11.787Z,87.21
2023-04-14T07:37:44.295Z,87.46
2023-04-14T07:38:11.769Z,87.46
2023-04-14T07:39:11.753Z,87.15
2023-04-14T07:40:12.364Z,86.90
2023-04-14T07:41:11.731Z,86.60
2023-04-14T07:42:11.717Z,86.66
2023-04-14T07:43:11.714Z,86.39
2023-04-14T07:44:13.402Z,86.60
2023-04-14T07:45:11.714Z,85.94
2023-04-14T07:46:11.748Z,86.87
2023-04-14T07:47:12.310Z,86.10
2023-04-14T07:48:13.469Z,85.38
2023-04-14T07:49:11.915Z,85.07
2023-04-14T07:50:11.694Z,84.93
2023-04-14T07:51:11.759Z,84.45
2023-04-14T07:52:11.673Z,84.62
2023-04-14T07:53:11.655Z,84.21
2023-04-14T07:54:11.710Z,84.72
2023-04-14T07:55:11.629Z,84.99
2023-04-14T07:56:11.624Z,84.99
2023-04-14T07:57:11.622Z,84.58
2023-04-14T07:58:15.272Z,83.55
2023-04-14T07:59:13.313Z,83.86
2023-04-14T08:00:11.583Z,83.31
2023-04-14T08:01:11.581Z,83.51
2023-04-14T08:02:11.667Z,82.76
2023-04-14T08:03:11.665Z,82.34
2023-04-14T08:04:11.794Z,81.90
2023-04-14T08:05:11.582Z,81.76
2023-04-14T08:06:11.544Z,81.34
2023-04-14T08:07:11.532Z,80.83
2023-04-14T08:08:11.517Z,80.69
2023-04-14T08:09:11.510Z,80.07
2023-04-14T08:10:11.515Z,80.69
2023-04-14T08:11:11.513Z,80.07
2023-04-14T08:12:12.302Z,80.28
2023-04-14T08:13:11.506Z,79.87
2023-04-14T08:14:11.479Z,79.77
2023-04-14T08:15:13.392Z,79.97
2023-04-14T08:16:12.277Z,79.83
2023-04-14T08:17:11.445Z,80.14
2023-04-14T08:18:11.484Z,79.49
2023-04-14T08:19:11.467Z,80.04
2023-04-14T08:20:11.434Z,79.97
2023-04-14T08:21:12.308Z,80.69
2023-04-14T08:22:11.413Z,79.63
2023-04-14T08:23:11.408Z,78.91
2023-04-14T08:24:11.419Z,78.91
2023-04-14T08:25:11.391Z,80.04
2023-04-14T08:26:13.414Z,81.24
2023-04-14T08:27:11.376Z,82.23
2023-04-14T08:28:11.444Z,81.92
2023-04-14T08:29:11.396Z,81.00
2023-04-14T08:30:11.661Z,81.62
2023-04-14T08:31:11.385Z,81.71
2023-04-14T08:32:11.400Z,81.51
2023-04-14T08:33:11.463Z,81.16
2023-04-14T08:34:12.882Z,79.90
2023-04-14T08:35:35.149Z,80.58
2023-04-14T08:36:12.305Z,80.65
2023-04-14T08:37:11.317Z,80.62
2023-04-14T08:38:11.416Z,80.00
2023-04-14T08:39:11.324Z,80.72
2023-04-14T08:40:11.294Z,79.66
2023-04-14T08:41:11.316Z,78.39
2023-04-14T08:42:11.262Z,77.94
2023-04-14T08:43:13.894Z,76.92
2023-04-14T08:44:11.303Z,76.81
2023-04-14T08:45:11.263Z,77.29
2023-04-14T08:46:11.319Z,77.84
2023-04-14T08:47:11.221Z,78.05
2023-04-14T08:48:11.207Z,76.68
2023-04-14T08:49:11.204Z,76.95
2023-04-14T08:50:11.213Z,76.50
2023-04-14T08:51:11.236Z,75.34
2023-04-14T08:52:11.180Z,75.21
2023-04-14T08:53:11.194Z,73.84
2023-04-14T08:54:11.201Z,72.99
2023-04-14T08:55:11.813Z,72.69
2023-04-14T08:56:11.387Z,72.79
2023-04-14T08:57:11.145Z,73.19
2023-04-14T08:58:11.186Z,75.17
2023-04-14T08:59:11.134Z,75.31
2023-04-14T09:00:11.155Z,75.17
2023-04-14T09:01:11.181Z,74.46
2023-04-14T09:02:11.272Z,75.24
2023-04-14T09:03:11.224Z,75.14
2023-04-14T09:04:11.959Z,76.50
2023-04-14T09:05:11.091Z,77.42
2023-04-14T09:06:11.101Z,76.43
2023-04-14T09:07:11.073Z,76.75
2023-04-14T09:08:11.053Z,75.48
2023-04-14T09:09:11.051Z,75.62
2023-04-14T09:10:11.906Z,76.19
2023-04-14T09:11:11.047Z,74.93
2023-04-14T09:12:11.052Z,75.68
2023-04-14T09:13:11.012Z,75.99
2023-04-14T09:14:11.011Z,75.07
2023-04-14T09:15:11.006Z,75.31
2023-04-14T09:16:11.006Z,75.31
2023-04-14T09:17:11.129Z,75.14
2023-04-14T09:18:11.040Z,76.50
2023-04-14T09:19:10.996Z,77.50
2023-04-14T09:20:35.464Z,78.52
2023-04-14T09:21:29.346Z,77.67
2023-04-14T09:22:11.969Z,76.61
2023-04-14T09:23:11.143Z,76.33
2023-04-14T09:24:12.112Z,76.53
2023-04-14T09:25:11.985Z,74.01
2023-04-14T09:26:11.921Z,72.58
2023-04-14T09:27:10.912Z,72.41
2023-04-14T09:28:10.908Z,71.87
2023-04-14T09:29:11.837Z,71.97
2023-04-14T09:30:10.905Z,71.77
2023-04-14T09:31:10.977Z,73.74
2023-04-14T09:32:10.882Z,73.16
2023-04-14T09:33:10.937Z,75.04
2023-04-14T09:34:11.844Z,76.06
2023-04-14T09:35:10.858Z,75.13
2023-04-14T09:36:10.857Z,76.43
2023-04-14T09:37:10.837Z,74.83
2023-04-14T09:38:11.406Z,77.08
2023-04-14T09:39:10.837Z,76.16
2023-04-14T09:40:11.421Z,75.20
2023-04-14T09:41:11.328Z,74.05
2023-04-14T09:42:10.806Z,73.13
2023-04-14T09:43:10.786Z,72.62
2023-04-14T09:44:10.818Z,73.19
2023-04-14T09:45:10.824Z,72.38
2023-04-14T09:46:10.853Z,71.73
2023-04-14T09:47:11.353Z,71.53
2023-04-14T09:48:10.806Z,70.48
2023-04-14T09:49:10.738Z,70.86
2023-04-14T09:50:12.430Z,70.65
2023-04-14T09:51:12.492Z,70.45
2023-04-14T09:52:10.746Z,70.14
2023-04-14T09:53:10.714Z,70.58
2023-04-14T09:54:11.417Z,71.67
2023-04-14T09:55:10.712Z,72.38
2023-04-14T09:56:12.332Z,71.87
2023-04-14T09:57:13.371Z,72.17
2023-04-14T09:58:11.348Z,71.67
2023-04-14T09:59:10.675Z,71.77
2023-04-14T10:00:10.658Z,72.72
2023-04-14T10:01:12.387Z,72.28
2023-04-14T10:02:10.709Z,72.89
2023-04-14T10:03:11.730Z,73.10
2023-04-14T10:04:10.673Z,73.30
2023-04-14T10:05:14.505Z,74.52
2023-04-14T10:06:11.603Z,73.64
2023-04-14T10:07:10.593Z,73.94
2023-04-14T10:08:11.597Z,74.55
2023-04-14T10:10:17.780Z,72.01
2023-04-14T10:11:19.243Z,70.89
2023-04-14T10:12:19.355Z,70.35
2023-04-14T10:13:21.386Z,70.62
2023-04-14T10:14:19.889Z,69.87
2023-04-14T10:15:20.237Z,69.54
2023-04-14T10:16:18.706Z,67.58
2023-04-14T10:17:20.324Z,67.38
2023-04-14T10:18:22.263Z,66.77
2023-04-14T10:20:27.369Z,65.69
2023-04-14T10:21:27.370Z,64.75
2023-04-14T10:22:27.344Z,64.85
2023-04-14T10:23:27.343Z,64.47
2023-04-14T10:24:27.333Z,63.93
2023-04-14T10:25:27.336Z,64.14
2023-04-14T10:26:27.337Z,62.75
2023-04-14T10:27:27.320Z,63.06
2023-04-14T10:28:28.404Z,62.82
2023-04-14T10:29:28.410Z,62.01
2023-04-14T10:30:28.375Z,61.51
2023-04-14T10:31:28.422Z,61.20
2023-04-14T10:32:28.396Z,61.30
2023-04-14T10:33:28.361Z,61.27
2023-04-14T10:34:29.128Z,60.86
2023-04-14T10:35:29.336Z,60.66
2023-04-14T10:36:28.340Z,59.99
2023-04-14T10:37:28.350Z,60.08
2023-04-14T10:38:30.101Z,60.39
2023-04-14T10:39:28.310Z,59.78
2023-04-14T10:40:29.132Z,59.75
2023-04-14T10:41:28.338Z,60.16
2023-04-14T10:42:28.285Z,59.25
2023-04-14T10:43:30.025Z,59.92
2023-04-14T10:44:28.319Z,59.12
2023-04-14T10:45:30.031Z,58.78
2023-04-14T10:46:28.282Z,57.98
2023-04-14T10:47:28.670Z,57.67
2023-04-14T10:48:28.220Z,57.24
2023-04-14T10:49:28.227Z,56.94
2023-04-14T10:50:28.225Z,55.40
2023-04-14T10:51:30.036Z,55.49
2023-04-14T10:52:28.216Z,55.11
2023-04-14T10:53:29.037Z,55.35
2023-04-14T10:54:28.191Z,56.28
2023-04-14T10:55:28.224Z,56.41
2023-04-14T10:56:28.191Z,56.31
2023-04-14T10:57:28.185Z,55.47
2023-04-14T10:58:28.145Z,55.07
2023-04-14T10:59:28.144Z,55.15
2023-04-14T11:00:28.147Z,53.80
2023-04-14T11:01:30.212Z,53.65
2023-04-14T11:02:28.654Z,54.16
2023-04-14T11:03:28.917Z,54.53
2023-04-14T11:04:29.351Z,53.93
2023-04-14T11:05:28.106Z,53.50
2023-04-14T11:07:34.388Z,51.78
2023-04-14T11:08:34.479Z,52.09
2023-04-14T11:09:35.524Z,52.39
2023-04-14T11:10:35.503Z,52.21
2023-04-14T11:11:35.482Z,51.91
2023-04-14T11:12:35.469Z,51.78
2023-04-14T11:13:35.493Z,51.73
2023-04-14T11:14:35.514Z,51.53
2023-04-14T11:15:35.462Z,52.26
2023-04-14T11:16:35.739Z,51.25
2023-04-14T11:17:35.543Z,52.28
2023-04-14T11:18:35.423Z,52.79
2023-04-14T11:19:35.419Z,52.39
2023-04-14T11:20:36.350Z,51.98
2023-04-14T11:21:36.364Z,53.14
2023-04-14T11:22:35.405Z,54.41
2023-04-14T11:23:35.374Z,55.04
2023-04-14T11:24:35.367Z,55.85
2023-04-14T11:25:35.357Z,55.37
2023-04-14T11:26:35.437Z,55.17
2023-04-14T11:27:35.344Z,56.01
2023-04-14T11:28:35.430Z,55.88
2023-04-14T11:29:35.348Z,55.50
2023-04-14T11:30:35.435Z,55.98
2023-04-14T11:31:35.346Z,55.76
2023-04-14T11:32:35.386Z,55.55
2023-04-14T11:33:35.307Z,54.64
2023-04-14T11:34:35.317Z,54.36
2023-04-14T11:35:35.299Z,54.46
2023-04-14T11:36:35.277Z,54.13
2023-04-14T11:37:35.264Z,54.05
2023-04-14T11:38:35.248Z,55.20
2023-04-14T11:39:35.235Z,55.78
2023-04-14T11:40:35.231Z,53.80
2023-04-14T11:41:35.252Z,54.38
2023-04-14T11:42:35.253Z,53.37
2023-04-14T11:43:35.227Z,54.16
2023-04-14T11:44:35.201Z,53.65
2023-04-14T11:45:35.192Z,53.65
2023-04-14T11:46:35.283Z,52.54
2023-04-14T11:47:35.239Z,52.81
2023-04-14T11:48:35.159Z,51.88
2023-04-14T11:49:35.169Z,51.35
2023-04-14T11:50:35.151Z,50.67
2023-04-14T11:51:35.139Z,49.45
2023-04-14T11:52:35.157Z,49.22
2023-04-14T11:53:35.140Z,49.13
2023-04-14T11:54:35.210Z,48.90
2023-04-14T11:55:35.142Z,49.01
2023-04-14T11:56:35.095Z,48.98
2023-04-14T11:57:35.093Z,49.08
2023-04-14T11:58:35.084Z,48.88
2023-04-14T11:59:35.095Z,49.66
2023-04-14T12:00:35.130Z,48.58
2023-04-14T12:01:35.073Z,49.01
2023-04-14T12:02:35.224Z,48.95
2023-04-14T12:03:35.684Z,49.42
2023-04-14T12:04:36.606Z,51.25
2023-04-14T12:05:37.890Z,49.73
2023-04-14T12:06:36.033Z,51.47
2023-04-14T12:07:35.026Z,52.00
2023-04-14T12:08:34.994Z,52.71
2023-04-14T12:09:34.986Z,52.18
2023-04-14T12:10:35.853Z,49.80
2023-04-14T12:11:34.978Z,51.26
2023-04-14T12:12:34.982Z,51.62
2023-04-14T12:13:35.774Z,52.96
2023-04-14T12:14:34.947Z,52.63
2023-04-14T12:15:34.948Z,51.95
2023-04-14T12:16:36.034Z,52.50
2023-04-14T12:17:34.996Z,54.11
2023-04-14T12:18:35.951Z,54.13
2023-04-14T12:19:36.214Z,54.97
2023-04-14T12:20:34.909Z,55.79
2023-04-14T12:22:08.294Z,55.48
2023-04-14T12:22:34.882Z,55.38
2023-04-14T12:23:34.871Z,55.99
2023-04-14T12:24:35.396Z,55.76
2023-04-14T12:26:22.296Z,54.74
2023-04-14T12:27:37.778Z,54.54
2023-04-14T12:28:22.254Z,54.44
2023-04-14T12:29:23.366Z,54.41
2023-04-14T12:30:23.339Z,52.86
2023-04-14T12:31:23.780Z,52.78
2023-04-14T12:32:23.377Z,52.89
2023-04-14T12:33:23.316Z,52.35
2023-04-14T12:34:23.312Z,52.89
2023-04-14T12:35:23.296Z,52.45
2023-04-14T12:36:27.434Z,53.55
2023-04-14T12:37:25.299Z,52.81
2023-04-14T12:38:23.278Z,51.98
2023-04-14T12:39:23.293Z,50.84
2023-04-14T12:40:23.291Z,50.73
2023-04-14T12:41:23.258Z,50.18
2023-04-14T12:42:26.172Z,49.34
2023-04-14T12:43:23.239Z,50.35
2023-04-14T12:44:23.242Z,48.43
2023-04-14T12:45:23.229Z,48.41
2023-04-14T12:46:23.286Z,48.21
2023-04-14T12:47:23.239Z,48.59
2023-04-14T12:48:23.298Z,45.96
2023-04-14T12:49:23.174Z,46.16
2023-04-14T12:50:23.253Z,46.36
2023-04-14T12:51:23.202Z,46.59
2023-04-14T12:52:23.787Z,46.06
2023-04-14T12:53:23.155Z,45.63
2023-04-14T12:54:23.654Z,45.33
2023-04-14T12:55:23.179Z,45.00
2023-04-14T12:56:23.124Z,44.42
2023-04-14T12:57:23.127Z,44.20
2023-04-14T12:58:23.135Z,44.32